Time;durP1;ratioP1;P1;durP2;ratioP2;P2;SDS_P1;SDS_P2;PMS_P1;PMS_P2;Temp;Humidity;BMP_temperature;BMP_pressure;BME280_temperature;BME280_humidity;BME280_pressure;Samples;Min_cycle;Max_cycle;Signal;HPM_P1;HPM_P2
2023/12/29 00:01:01;;;;;;;4.65;3.45;;;;;;;8.67;100.00;93114.03;2098301;28;20804;-79
2023/12/29 00:02:02;;;;;;;5.80;3.53;;;;;;;8.63;100.00;93114.06;2098305;28;20021;-80
2023/12/29 00:03:03;;;;;;;3.70;3.20;;;;;;;8.64;100.00;93104.16;2090493;28;20152;-81
2023/12/29 00:04:04;;;;;;;4.22;3.67;;;;;;;8.57;100.00;93105.03;2106613;28;20091;-77
2023/12/29 00:05:05;;;;;;;5.10;3.28;;;;;;;8.77;100.00;93116.53;2107365;28;20062;-79
2023/12/29 00:06:06;;;;;;;4.28;3.55;;;;;;;8.50;100.00;93107.78;2106209;28;20020;-78
2023/12/29 00:07:07;;;;;;;4.30;3.42;;;;;;;8.65;100.00;93111.00;2115157;28;20066;-76
2023/12/29 00:08:08;;;;;;;4.32;3.15;;;;;;;8.78;100.00;93104.72;2098630;28;20028;-79
2023/12/29 00:09:09;;;;;;;5.72;3.70;;;;;;;8.98;100.00;93110.13;2102516;28;20028;-80
2023/12/29 00:10:10;;;;;;;6.30;3.60;;;;;;;8.75;100.00;93110.09;2106638;28;20381;-79
2023/12/29 00:11:19;;;;;;;4.30;3.40;;;;;;;8.79;100.00;93100.91;2107223;28;20536;-80
2023/12/29 00:12:20;;;;;;;4.57;3.70;;;;;;;8.73;100.00;93107.06;2108628;27;20031;-79
2023/12/29 00:13:23;;;;;;;6.75;2.90;;;;;;;8.88;100.00;93107.63;2107692;28;20543;-77
2023/12/29 00:14:26;;;;;;;6.25;3.50;;;;;;;8.85;100.00;93106.53;2109070;28;20042;-79
2023/12/29 00:15:27;;;;;;;4.78;3.42;;;;;;;8.83;100.00;93101.59;2106489;28;20020;-79
2023/12/29 00:16:28;;;;;;;3.85;3.00;;;;;;;8.99;100.00;93103.63;2089870;28;20114;-78
2023/12/29 00:17:28;;;;;;;6.18;3.33;;;;;;;8.87;100.00;93106.88;2102247;28;20031;-80
2023/12/29 00:18:29;;;;;;;3.25;2.90;;;;;;;8.53;100.00;93099.75;2107381;28;20164;-79
2023/12/29 00:19:30;;;;;;;5.53;3.80;;;;;;;9.00;100.00;93101.72;2103668;28;20032;-77
2023/12/29 00:20:31;;;;;;;6.13;3.33;;;;;;;8.95;100.00;93108.25;2116100;27;20027;-77
2023/12/29 00:21:32;;;;;;;5.68;3.42;;;;;;;8.90;100.00;93100.72;2102155;28;20036;-79
2023/12/29 00:22:34;;;;;;;3.50;3.10;;;;;;;8.87;100.00;93098.88;2095534;28;20512;-80
2023/12/29 00:23:35;;;;;;;7.22;3.40;;;;;;;8.88;100.00;93097.72;2096189;28;20089;-80
2023/12/29 00:24:35;;;;;;;4.85;3.15;;;;;;;8.82;100.00;93088.66;2103304;28;20031;-77
2023/12/29 00:25:37;;;;;;;3.70;3.30;;;;;;;8.71;100.00;93093.41;2117421;27;20377;-77
2023/12/29 00:26:38;;;;;;;3.65;3.35;;;;;;;8.85;100.00;93097.78;2122438;27;20031;-75
2023/12/29 00:27:39;;;;;;;3.55;3.22;;;;;;;8.84;100.00;93089.03;2114957;27;20024;-76
2023/12/29 00:28:40;;;;;;;3.47;3.13;;;;;;;8.83;100.00;93088.28;2114995;28;20625;-78
2023/12/29 00:29:41;;;;;;;4.68;3.47;;;;;;;8.72;100.00;93076.25;2115404;27;20015;-80
2023/12/29 00:30:42;;;;;;;5.78;3.65;;;;;;;8.61;100.00;93083.69;2113802;27;20059;-81
2023/12/29 00:31:43;;;;;;;5.28;3.75;;;;;;;8.73;100.00;93085.75;2100652;28;20024;-80
2023/12/29 00:32:45;;;;;;;5.13;3.58;;;;;;;8.96;100.00;93075.13;2113625;28;20447;-79
2023/12/29 00:33:45;;;;;;;4.28;3.35;;;;;;;9.02;100.00;93078.06;2111380;28;20496;-79
2023/12/29 00:34:46;;;;;;;4.47;3.35;;;;;;;8.92;100.00;93076.34;2109060;28;20023;-82
2023/12/29 00:35:47;;;;;;;3.58;3.28;;;;;;;8.75;100.00;93086.13;2114435;28;20027;-79
2023/12/29 00:36:48;;;;;;;4.20;3.78;;;;;;;8.87;100.00;93077.56;2122808;27;20023;-78
2023/12/29 00:37:50;;;;;;;4.97;3.42;;;;;;;8.87;100.00;93085.56;2114416;28;20434;-79
2023/12/29 00:38:51;;;;;;;5.07;3.45;;;;;;;8.86;100.00;93078.69;2092467;28;20025;-79
2023/12/29 00:39:52;;;;;;;5.00;3.55;;;;;;;8.97;100.00;93073.97;2089385;28;20036;-79
2023/12/29 00:40:53;;;;;;;4.43;3.20;;;;;;;8.94;100.00;93074.00;2105870;28;20020;-82
2023/12/29 00:41:56;;;;;;;4.68;3.08;;;;;;;9.01;100.00;93072.00;2106184;28;20030;-78
2023/12/29 00:43:17;;;;;;;5.32;3.42;;;;;;;9.16;100.00;93074.41;2093129;28;20021;-80
2023/12/29 00:44:17;;;;;;;4.38;3.20;;;;;;;9.21;100.00;93071.28;2116985;27;20029;-76
2023/12/29 00:45:21;;;;;;;5.38;3.50;;;;;;;9.04;100.00;93067.75;2114011;28;20740;-78
2023/12/29 00:46:21;;;;;;;5.07;4.25;;;;;;;8.95;100.00;93073.59;2090229;28;20103;-78
2023/12/29 00:47:25;;;;;;;4.47;3.75;;;;;;;8.96;100.00;93061.06;2091991;28;20049;-80
2023/12/29 00:48:26;;;;;;;6.82;3.80;;;;;;;9.04;100.00;93068.53;2089472;28;20088;-81
2023/12/29 00:49:27;;;;;;;6.30;3.47;;;;;;;9.14;100.00;93072.16;2090956;28;20382;-81
2023/12/29 00:50:28;;;;;;;4.20;3.40;;;;;;;9.19;100.00;93077.03;2106576;28;20051;-83
2023/12/29 00:51:29;;;;;;;5.88;3.55;;;;;;;8.95;100.00;93068.28;2097606;28;20074;-79
2023/12/29 00:52:30;;;;;;;5.65;3.40;;;;;;;9.28;100.00;93069.25;2098010;28;20039;-78
2023/12/29 00:53:32;;;;;;;3.67;3.17;;;;;;;9.23;100.00;93079.63;2106183;28;20030;-81
2023/12/29 00:54:33;;;;;;;6.95;3.67;;;;;;;9.04;100.00;93079.19;2105510;28;20484;-78
2023/12/29 00:55:33;;;;;;;4.93;3.30;;;;;;;9.06;100.00;93071.53;2105729;28;20043;-77
2023/12/29 00:56:35;;;;;;;3.55;3.00;;;;;;;9.13;100.00;93064.56;2109484;28;20043;-80
2023/12/29 00:57:36;;;;;;;3.85;3.45;;;;;;;9.25;100.00;93074.63;2105315;28;20051;-81
2023/12/29 00:58:37;;;;;;;4.70;3.40;;;;;;;9.21;100.00;93055.28;2106518;28;20046;-79
2023/12/29 00:59:41;;;;;;;11.63;3.92;;;;;;;9.33;100.00;93058.09;2107760;28;20047;-81
2023/12/29 01:00:42;;;;;;;4.38;3.67;;;;;;;9.15;100.00;93062.25;2101734;28;20036;-80
2023/12/29 01:01:44;;;;;;;4.05;3.25;;;;;;;9.07;100.00;93069.59;2095366;28;20020;-80
2023/12/29 01:02:45;;;;;;;6.00;3.50;;;;;;;9.14;100.00;93066.09;2106676;28;20024;-79
2023/12/29 01:03:47;;;;;;;6.47;3.50;;;;;;;8.99;100.00;93071.63;2097663;28;20024;-79
2023/12/29 01:04:48;;;;;;;4.45;3.45;;;;;;;8.97;100.00;93067.88;2109234;28;20463;-79
2023/12/29 01:05:49;;;;;;;5.93;3.85;;;;;;;8.91;100.00;93064.94;2114355;28;20028;-80
2023/12/29 01:06:50;;;;;;;4.68;3.40;;;;;;;8.98;100.00;93077.38;2117077;27;20027;-81
2023/12/29 01:07:51;;;;;;;5.60;3.63;;;;;;;9.00;100.00;93067.06;2111347;28;20024;-76
2023/12/29 01:08:52;;;;;;;6.38;3.65;;;;;;;8.91;100.00;93072.94;2093965;28;20025;-80
2023/12/29 01:09:53;;;;;;;4.72;3.50;;;;;;;8.83;100.00;93074.19;2109962;27;20022;-81
2023/12/29 01:10:54;;;;;;;3.38;3.08;;;;;;;8.91;100.00;93074.81;2106585;28;20043;-81
2023/12/29 01:11:55;;;;;;;7.90;3.42;;;;;;;8.81;100.00;93071.91;2091319;28;20115;-76
2023/12/29 01:12:55;;;;;;;5.13;3.80;;;;;;;8.84;100.00;93075.69;2099862;28;20779;-78
2023/12/29 01:13:56;;;;;;;4.18;3.70;;;;;;;8.81;100.00;93071.91;2106234;28;20077;-79
2023/12/29 01:14:57;;;;;;;4.22;3.53;;;;;;;8.84;100.00;93070.38;2123467;27;20019;-79
2023/12/29 01:15:58;;;;;;;5.72;3.28;;;;;;;8.65;100.00;93077.13;2110137;28;20082;-78
2023/12/29 01:16:59;;;;;;;6.45;3.67;;;;;;;8.67;100.00;93082.06;2098346;28;20744;-77
2023/12/29 01:18:00;;;;;;;4.22;3.80;;;;;;;8.71;100.00;93075.50;2097507;28;20111;-78
2023/12/29 01:19:01;;;;;;;5.55;3.78;;;;;;;8.74;100.00;93076.63;2091655;28;20079;-80
2023/12/29 01:20:05;;;;;;;7.13;3.28;;;;;;;8.74;100.00;93076.63;2089171;28;20025;-78
2023/12/29 01:21:06;;;;;;;4.85;3.55;;;;;;;8.94;100.00;93082.75;2105439;28;20465;-79
2023/12/29 01:22:07;;;;;;;5.07;4.00;;;;;;;8.80;100.00;93080.34;2100466;28;20051;-78
2023/12/29 01:23:08;;;;;;;5.82;4.00;;;;;;;8.77;100.00;93084.53;2099177;28;20078;-76
2023/12/29 01:24:09;;;;;;;4.57;3.47;;;;;;;8.92;100.00;93077.09;2097495;28;20427;-78
2023/12/29 01:25:10;;;;;;;4.35;3.50;;;;;;;8.86;100.00;93081.38;2113822;28;20035;-78
2023/12/29 01:26:11;;;;;;;7.90;3.92;;;;;;;8.79;100.00;93089.50;2114859;28;20819;-75
2023/12/29 01:27:12;;;;;;;6.53;3.88;;;;;;;8.83;100.00;93082.94;2117527;27;20022;-77
2023/12/29 01:28:13;;;;;;;4.95;3.72;;;;;;;8.77;100.00;93086.47;2114966;28;20050;-82
2023/12/29 01:29:13;;;;;;;4.28;3.25;;;;;;;8.62;100.00;93085.94;2103650;28;20020;-81
2023/12/29 01:30:14;;;;;;;6.03;3.85;;;;;;;8.56;100.00;93085.66;2097156;28;20074;-77
2023/12/29 01:31:18;;;;;;;5.13;4.05;;;;;;;8.57;100.00;93089.06;2089812;28;20021;-78
2023/12/29 01:32:19;;;;;;;5.28;3.80;;;;;;;8.57;100.00;93084.47;2095991;28;20020;-79
2023/12/29 01:33:21;;;;;;;8.45;4.25;;;;;;;8.38;100.00;93095.78;2094974;28;20062;-79
2023/12/29 01:34:22;;;;;;;7.20;4.05;;;;;;;8.40;100.00;93093.47;2100207;28;20017;-81
2023/12/29 01:35:24;;;;;;;6.28;4.47;;;;;;;8.50;100.00;93094.47;2104337;28;20835;-78
2023/12/29 01:36:25;;;;;;;5.57;3.60;;;;;;;8.56;100.00;93088.31;2108007;28;20152;-76
2023/12/29 01:37:26;;;;;;;5.57;3.63;;;;;;;8.56;100.00;93082.97;2096752;28;20020;-76
2023/12/29 01:38:27;;;;;;;4.78;3.88;;;;;;;8.67;100.00;93087.38;2099848;28;20012;-78
2023/12/29 01:39:28;;;;;;;5.97;3.92;;;;;;;8.71;100.00;93088.84;2097413;28;20078;-82
2023/12/29 01:40:29;;;;;;;6.60;4.25;;;;;;;8.50;100.00;93086.47;2105838;28;20031;-79
2023/12/29 01:41:30;;;;;;;4.57;3.65;;;;;;;8.39;100.00;93088.56;2112237;28;20027;-80
2023/12/29 01:42:31;;;;;;;3.97;3.53;;;;;;;8.44;100.00;93093.44;2102716;28;20067;-77
2023/12/29 01:43:32;;;;;;;5.95;3.80;;;;;;;8.48;100.00;93086.91;2087889;28;20044;-74
2023/12/29 01:44:32;;;;;;;6.35;4.00;;;;;;;8.38;100.00;93085.13;2038697;28;20083;-76
2023/12/29 01:45:33;;;;;;;3.75;3.42;;;;;;;8.36;100.00;93092.75;1973788;28;20039;-79
2023/12/29 01:46:35;;;;;;;7.40;3.67;;;;;;;8.45;100.00;93090.34;2011573;28;23299;-78
2023/12/29 01:47:36;;;;;;;4.85;3.60;;;;;;;8.31;100.00;93090.53;2037003;27;20042;-79
2023/12/29 01:48:37;;;;;;;8.25;4.30;;;;;;;8.38;100.00;93082.44;2025071;28;20084;-81
2023/12/29 01:49:38;;;;;;;5.85;3.30;;;;;;;8.53;100.00;93091.78;2037382;28;22755;-78
2023/12/29 01:50:40;;;;;;;7.65;3.67;;;;;;;8.70;100.00;93089.25;2044115;28;20028;-78
2023/12/29 01:51:42;;;;;;;4.75;4.03;;;;;;;8.51;100.00;93091.41;2040123;28;20135;-77
2023/12/29 01:52:43;;;;;;;4.80;3.70;;;;;;;8.40;100.00;93087.41;2038356;28;20032;-80
2023/12/29 01:53:45;;;;;;;4.53;3.75;;;;;;;8.45;100.00;93079.69;2047218;28;20139;-80
2023/12/29 01:54:49;;;;;;;3.97;3.25;;;;;;;8.51;100.00;93088.00;2063788;28;20028;-80
2023/12/29 01:55:49;;;;;;;5.05;3.30;;;;;;;8.66;100.00;93086.63;2067623;28;20100;-79
2023/12/29 01:56:55;;;;;;;7.40;3.42;;;;;;;8.52;100.00;93082.28;2073324;28;20433;-79
2023/12/29 01:57:56;;;;;;;4.35;3.58;;;;;;;8.50;100.00;93076.59;2096797;28;20012;-80
2023/12/29 01:58:57;;;;;;;6.47;3.53;;;;;;;8.26;100.00;93081.09;2114444;28;20030;-81
2023/12/29 01:59:58;;;;;;;3.80;3.33;;;;;;;8.44;100.00;93074.78;2105391;28;20826;-78
2023/12/29 02:01:01;;;;;;;5.97;3.30;;;;;;;8.37;100.00;93075.63;2105472;28;20138;-81
2023/12/29 02:02:04;;;;;;;4.50;3.60;;;;;;;8.48;100.00;93076.25;2107324;28;20046;-78
2023/12/29 02:03:05;;;;;;;5.07;3.47;;;;;;;8.18;100.00;93073.59;2097654;28;20021;-80
2023/12/29 02:04:07;;;;;;;5.22;3.92;;;;;;;8.28;100.00;93076.09;2102881;28;20136;-79
2023/12/29 02:05:08;;;;;;;5.07;3.75;;;;;;;8.19;100.00;93083.09;2104385;28;20020;-78
2023/12/29 02:06:12;;;;;;;4.90;3.65;;;;;;;8.00;100.00;93079.91;2094176;28;20017;-81
2023/12/29 02:07:13;;;;;;;4.63;3.53;;;;;;;8.03;100.00;93078.34;2105494;27;20153;-79
2023/12/29 02:08:14;;;;;;;4.00;3.30;;;;;;;8.11;100.00;93073.69;2104983;28;20042;-78
2023/12/29 02:09:17;;;;;;;8.85;3.38;;;;;;;8.10;100.00;93072.19;2088362;28;20112;-77
2023/12/29 02:10:19;;;;;;;5.38;3.03;;;;;;;8.20;100.00;93072.03;2106035;28;20016;-77
2023/12/29 02:11:20;;;;;;;3.30;2.88;;;;;;;8.24;100.00;93072.72;2114591;28;20722;-79
2023/12/29 02:12:21;;;;;;;3.00;2.67;;;;;;;8.17;100.00;93066.75;2122133;27;20239;-77
2023/12/29 02:13:22;;;;;;;5.45;3.03;;;;;;;8.32;100.00;93076.81;2120071;27;20098;-80
2023/12/29 02:14:23;;;;;;;3.88;2.95;;;;;;;8.36;100.00;93068.78;2098376;28;20442;-80
2023/12/29 02:15:24;;;;;;;3.28;2.95;;;;;;;8.20;100.00;93074.69;2105089;28;20020;-80
2023/12/29 02:16:33;;;;;;;3.25;2.95;;;;;;;8.33;100.00;93075.66;2113860;28;20015;-77
2023/12/29 02:17:40;;;;;;;3.72;2.55;;;;;;;8.32;100.00;93071.47;2105400;28;20469;-81
2023/12/29 02:18:45;;;;;;;3.65;2.70;;;;;;;8.44;100.00;93072.88;2105603;28;20039;-81
2023/12/29 02:19:49;;;;;;;3.22;2.75;;;;;;;8.22;100.00;93075.06;2113009;28;20027;-80
2023/12/29 02:20:50;;;;;;;3.22;2.78;;;;;;;8.28;100.00;93076.09;2114100;28;20019;-79
2023/12/29 02:21:51;;;;;;;4.63;3.00;;;;;;;8.18;100.00;93071.69;2114114;28;20342;-81
2023/12/29 02:22:52;;;;;;;3.08;2.67;;;;;;;8.06;100.00;93069.56;2121450;27;20023;-77
2023/12/29 02:25:18;;;;;;;;;;;;;;;6.89;100.00;93069.69;2131201;27;20497;-81
2023/12/29 02:26:22;;;;;;;3.83;2.97;;;;;;;7.15;100.00;93059.56;2124779;27;19979;-82
2023/12/29 02:27:26;;;;;;;3.70;2.60;;;;;;;7.13;100.00;93069.84;2128416;27;20034;-78
2023/12/29 02:28:27;;;;;;;3.65;2.78;;;;;;;7.24;100.00;93057.97;2119410;28;20038;-79
2023/12/29 02:29:30;;;;;;;6.15;2.95;;;;;;;7.56;100.00;93056.88;2122185;27;20687;-80
2023/12/29 02:30:45;;;;;;;4.03;3.08;;;;;;;7.44;100.00;93060.03;2128959;27;20073;-80
2023/12/29 02:31:51;;;;;;;4.18;2.50;;;;;;;7.32;100.00;93056.72;2125871;27;20045;-81
2023/12/29 02:32:59;;;;;;;4.28;3.10;;;;;;;7.61;100.00;93063.66;2129428;27;20053;-80
2023/12/29 02:34:06;;;;;;;2.75;2.47;;;;;;;7.40;100.00;93061.97;2127925;27;20514;-77
2023/12/29 02:35:10;;;;;;;3.63;2.75;;;;;;;7.51;100.00;93058.06;2124173;27;20015;-78
2023/12/29 02:36:13;;;;;;;3.60;2.80;;;;;;;7.45;100.00;93053.56;2120866;28;20850;-81
2023/12/29 02:37:15;;;;;;;3.85;2.85;;;;;;;7.54;100.00;93059.91;2120180;27;20016;-82
2023/12/29 02:38:16;;;;;;;4.03;3.05;;;;;;;7.93;100.00;93060.59;2119073;28;20059;-81
2023/12/29 02:39:17;;;;;;;4.25;3.13;;;;;;;7.57;100.00;93053.78;2121249;28;20110;-79
2023/12/29 02:40:19;;;;;;;4.85;3.22;;;;;;;7.78;100.00;93060.78;2116611;28;20101;-79
2023/12/29 02:41:20;;;;;;;3.40;2.90;;;;;;;8.02;100.00;93053.63;2129343;27;20098;-81
2023/12/29 02:42:21;;;;;;;5.70;2.40;;;;;;;7.94;100.00;93059.44;2129232;27;20027;-81
2023/12/29 02:43:22;;;;;;;3.30;2.85;;;;;;;7.98;100.00;93060.91;2122048;27;20095;-80
2023/12/29 02:44:23;;;;;;;4.70;2.88;;;;;;;7.96;100.00;93049.16;2124007;27;20076;-82
2023/12/29 02:45:24;;;;;;;3.72;2.90;;;;;;;7.93;100.00;93041.97;2122971;27;20026;-78
2023/12/29 02:46:25;;;;;;;5.47;3.40;;;;;;;8.12;100.00;93051.22;2123852;27;20031;-81
2023/12/29 02:47:26;;;;;;;4.82;3.50;;;;;;;8.00;100.00;93049.88;2121340;27;20031;-79
2023/12/29 02:48:27;;;;;;;7.32;3.22;;;;;;;7.85;100.00;93051.94;2125213;27;20660;-79
2023/12/29 02:49:28;;;;;;;3.60;3.25;;;;;;;7.93;100.00;93049.94;2124306;27;20027;-78
2023/12/29 02:50:29;;;;;;;3.83;3.03;;;;;;;8.06;100.00;93051.66;2012215;27;20123;-77
2023/12/29 02:51:30;;;;;;;4.13;3.33;;;;;;;8.08;100.00;93043.31;2007920;27;20033;-81
2023/12/29 02:52:31;;;;;;;5.15;3.90;;;;;;;8.15;100.00;93042.44;2043255;27;20027;-79
2023/12/29 02:53:32;;;;;;;5.97;3.45;;;;;;;8.06;100.00;93046.34;2045601;27;20094;-80
2023/12/29 02:54:33;;;;;;;4.85;3.33;;;;;;;8.13;100.00;93050.09;2047586;27;20125;-81
2023/12/29 02:55:34;;;;;;;4.47;3.70;;;;;;;7.98;100.00;93046.84;2037157;27;21233;-81
2023/12/29 02:56:35;;;;;;;4.20;3.25;;;;;;;8.04;100.00;93043.34;2032861;27;20030;-78
2023/12/29 02:57:37;;;;;;;5.10;3.47;;;;;;;8.17;100.00;93042.81;2051935;27;20546;-79
2023/12/29 02:58:38;;;;;;;5.05;3.50;;;;;;;8.14;100.00;93047.00;2064647;27;20026;-77
2023/12/29 02:59:39;;;;;;;3.78;3.35;;;;;;;8.05;100.00;93038.78;2069689;27;20455;-81
2023/12/29 03:00:40;;;;;;;3.88;3.30;;;;;;;8.08;100.00;93043.31;2075752;27;20020;-81
2023/12/29 03:01:41;;;;;;;6.18;3.70;;;;;;;8.03;100.00;93044.50;2071895;27;20049;-80
2023/12/29 03:02:42;;;;;;;7.13;3.80;;;;;;;7.83;100.00;93041.72;2074678;28;20027;-81
2023/12/29 03:03:43;;;;;;;4.95;3.72;;;;;;;7.89;100.00;93031.38;2077414;27;20028;-79
2023/12/29 03:04:44;;;;;;;6.55;3.95;;;;;;;8.03;100.00;93033.09;2085206;28;20060;-77
2023/12/29 03:05:51;;;;;;;4.55;3.63;;;;;;;7.96;100.00;93038.50;2095272;28;20035;-78
2023/12/29 03:06:52;;;;;;;5.68;4.03;;;;;;;7.97;100.00;93024.03;2123229;27;20095;-79
2023/12/29 03:07:53;;;;;;;7.30;4.15;;;;;;;7.88;100.00;93029.88;2129639;27;20468;-81
2023/12/29 03:08:54;;;;;;;7.70;3.85;;;;;;;7.95;100.00;93032.44;2129239;27;20068;-78
2023/12/29 03:10:03;;;;;;;4.50;3.85;;;;;;;8.09;100.00;93028.84;2120471;28;20032;-79
2023/12/29 03:11:04;;;;;;;6.03;3.88;;;;;;;8.16;100.00;93026.06;2115512;27;20486;-84
2023/12/29 03:12:06;;;;;;;4.97;3.67;;;;;;;8.26;100.00;93024.41;2120706;27;20027;-78
2023/12/29 03:13:07;;;;;;;5.88;4.05;;;;;;;8.08;100.00;93027.34;2118945;28;20448;-78
2023/12/29 03:14:08;;;;;;;4.47;3.83;;;;;;;8.31;100.00;93029.28;2118491;27;20023;-79
2023/12/29 03:15:09;;;;;;;6.22;4.32;;;;;;;8.25;100.00;93021.00;2129675;27;20015;-82
2023/12/29 03:16:10;;;;;;;7.30;4.25;;;;;;;8.28;100.00;93022.84;2129961;27;20027;-81
2023/12/29 03:17:11;;;;;;;4.90;4.05;;;;;;;8.30;100.00;93017.88;2129413;27;20064;-81
2023/12/29 03:18:12;;;;;;;3.75;3.38;;;;;;;8.18;100.00;93023.00;2129232;27;20047;-81
2023/12/29 03:19:13;;;;;;;9.13;4.20;;;;;;;8.19;100.00;93027.16;2121819;27;20073;-81
2023/12/29 03:20:14;;;;;;;6.40;4.03;;;;;;;8.27;100.00;93023.25;2119919;28;20125;-79
2023/12/29 03:21:15;;;;;;;5.35;4.25;;;;;;;8.21;100.00;93019.53;2116178;28;20031;-80
2023/12/29 03:22:16;;;;;;;8.25;4.20;;;;;;;7.93;100.00;93024.09;2124822;27;20077;-81
2023/12/29 03:23:17;;;;;;;5.03;4.05;;;;;;;8.02;100.00;93029.66;2118734;28;20345;-82
2023/12/29 03:24:18;;;;;;;4.90;4.07;;;;;;;8.06;100.00;93018.97;2117895;27;20016;-79
2023/12/29 03:25:19;;;;;;;5.72;4.38;;;;;;;8.11;100.00;93018.53;2121246;27;20020;-80
2023/12/29 03:26:20;;;;;;;6.20;4.47;;;;;;;8.00;100.00;93032.00;2122093;27;20402;-81
2023/12/29 03:27:21;;;;;;;5.03;4.28;;;;;;;7.85;100.00;93020.00;2120796;28;20031;-83
2023/12/29 03:28:21;;;;;;;5.20;4.22;;;;;;;7.96;100.00;93020.63;2112279;28;20019;-82
2023/12/29 03:29:22;;;;;;;4.75;3.95;;;;;;;7.96;100.00;93023.28;2112253;28;20130;-81
2023/12/29 03:30:23;;;;;;;6.47;5.10;;;;;;;7.91;100.00;93017.69;2121619;27;20551;-79
2023/12/29 03:31:24;;;;;;;5.53;4.43;;;;;;;7.89;100.00;93019.97;2122515;27;20014;-83
2023/12/29 03:32:25;;;;;;;5.45;4.05;;;;;;;8.05;100.00;93023.56;2120726;27;20097;-80
2023/12/29 03:33:26;;;;;;;8.23;4.68;;;;;;;8.03;100.00;93025.88;2111627;28;20030;-82
2023/12/29 03:34:27;;;;;;;4.78;4.03;;;;;;;8.07;100.00;93023.13;2116657;28;20047;-82
2023/12/29 03:35:28;;;;;;;6.68;4.65;;;;;;;7.99;100.00;93011.84;2118036;28;20034;-79
2023/12/29 03:36:29;;;;;;;6.68;4.60;;;;;;;7.93;100.00;93010.03;2119505;27;20019;-80
2023/12/29 03:37:30;;;;;;;4.28;3.60;;;;;;;8.03;100.00;93023.22;2106183;28;20016;-80
2023/12/29 03:38:33;;;;;;;7.32;4.53;;;;;;;7.98;100.00;93017.56;2116662;27;20458;-81
2023/12/29 03:39:35;;;;;;;7.90;4.70;;;;;;;8.16;100.00;93018.06;2107108;28;20035;-80
2023/12/29 03:40:36;;;;;;;4.35;3.95;;;;;;;8.21;100.00;93007.00;2098457;28;20135;-79
2023/12/29 03:41:37;;;;;;;7.45;4.20;;;;;;;8.12;100.00;93005.97;2109338;28;20857;-78
2023/12/29 03:42:39;;;;;;;5.40;4.30;;;;;;;8.13;100.00;93016.22;2106065;28;20039;-81
2023/12/29 03:43:40;;;;;;;4.47;3.90;;;;;;;8.15;100.00;93002.50;2113786;28;20028;-81
2023/12/29 03:44:41;;;;;;;6.78;3.95;;;;;;;8.34;100.00;93009.84;2115399;28;20036;-78
2023/12/29 03:45:41;;;;;;;5.53;3.88;;;;;;;8.23;100.00;93003.91;2115010;28;20020;-79
2023/12/29 03:46:43;;;;;;;6.43;4.45;;;;;;;7.89;100.00;92996.78;2115013;28;20032;-79
2023/12/29 03:47:44;;;;;;;5.13;3.67;;;;;;;7.96;100.00;92988.69;2114927;28;20027;-84
2023/12/29 03:48:45;;;;;;;6.55;3.55;;;;;;;8.13;100.00;92991.53;2112032;28;20723;-76
2023/12/29 03:49:46;;;;;;;5.10;3.80;;;;;;;8.22;100.00;92987.19;2112177;28;20110;-82
2023/12/29 03:50:47;;;;;;;6.10;3.88;;;;;;;8.04;100.00;92998.09;2115223;28;20404;-79
2023/12/29 03:51:48;;;;;;;6.25;3.22;;;;;;;7.90;100.00;93002.84;2111004;27;20019;-80
2023/12/29 03:52:49;;;;;;;4.55;4.00;;;;;;;7.86;100.00;92994.16;2115434;28;20051;-78
2023/12/29 03:54:05;;;;;;;7.35;3.75;;;;;;;7.90;100.00;93003.63;2113512;28;20027;-79
2023/12/29 03:55:06;;;;;;;5.57;3.92;;;;;;;8.00;100.00;93007.28;2113577;27;20051;-81
2023/12/29 03:56:08;;;;;;;6.50;4.00;;;;;;;7.87;100.00;93007.06;2116050;27;20019;-80
2023/12/29 03:57:09;;;;;;;5.78;4.20;;;;;;;8.13;100.00;93002.91;2114405;28;20073;-82
2023/12/29 03:58:10;;;;;;;7.70;4.32;;;;;;;8.11;100.00;93004.47;2113428;28;20023;-82
2023/12/29 03:59:11;;;;;;;5.63;3.67;;;;;;;8.15;100.00;92994.53;2115746;27;20027;-80
2023/12/29 04:00:14;;;;;;;5.00;3.78;;;;;;;8.04;100.00;92992.78;2115348;27;20023;-80
2023/12/29 04:01:17;;;;;;;7.55;4.40;;;;;;;8.00;100.00;92989.41;2115498;28;20106;-83
2023/12/29 04:02:18;;;;;;;10.68;4.35;;;;;;;8.00;100.00;92994.72;2121857;27;20067;-79
2023/12/29 04:03:21;;;;;;;7.32;3.88;;;;;;;8.04;100.00;93000.75;2117366;27;20448;-80
2023/12/29 04:04:21;;;;;;;5.85;4.18;;;;;;;8.07;100.00;92993.84;2114649;28;20023;-81
2023/12/29 04:05:22;;;;;;;5.00;3.88;;;;;;;8.19;100.00;92995.97;2114555;28;20020;-79
2023/12/29 04:06:23;;;;;;;6.80;3.83;;;;;;;8.06;100.00;92987.03;2116949;27;20468;-80
2023/12/29 04:07:24;;;;;;;7.03;4.47;;;;;;;8.14;100.00;92988.44;2114000;27;20089;-77
2023/12/29 04:08:25;;;;;;;7.03;4.22;;;;;;;8.13;100.00;92983.53;2113644;27;20020;-81
2023/12/29 04:09:26;;;;;;;5.82;4.00;;;;;;;8.23;100.00;92974.63;2112167;28;20130;-81
2023/12/29 04:10:27;;;;;;;7.53;3.88;;;;;;;8.07;100.00;92977.88;2115683;28;20380;-82
2023/12/29 04:11:28;;;;;;;5.65;4.32;;;;;;;8.15;100.00;92981.22;2117012;27;20028;-82
2023/12/29 04:12:29;;;;;;;5.88;3.80;;;;;;;8.18;100.00;92985.72;2122922;27;20034;-77
2023/12/29 04:13:30;;;;;;;4.72;3.90;;;;;;;7.99;100.00;92982.56;2123105;27;20039;-80
2023/12/29 04:14:31;;;;;;;6.60;3.90;;;;;;;8.04;100.00;92982.13;2122284;27;20071;-80
2023/12/29 04:15:32;;;;;;;6.32;3.47;;;;;;;8.30;100.00;92990.50;2114703;28;20020;-78
2023/12/29 04:16:33;;;;;;;6.32;3.85;;;;;;;8.32;100.00;92977.53;2114918;28;20524;-80
2023/12/29 04:17:34;;;;;;;4.88;3.97;;;;;;;8.36;100.00;92994.19;2115037;28;20035;-79
2023/12/29 04:18:35;;;;;;;7.13;3.65;;;;;;;8.55;100.00;92979.47;2105761;28;20127;-81
2023/12/29 04:19:36;;;;;;;5.78;3.50;;;;;;;8.55;100.00;92993.53;2105105;28;20032;-79
2023/12/29 04:20:37;;;;;;;5.32;3.30;;;;;;;8.42;100.00;92986.53;2115147;28;20035;-79
2023/12/29 04:21:37;;;;;;;4.03;3.40;;;;;;;8.39;100.00;92992.69;2120670;27;20079;-83
2023/12/29 04:22:38;;;;;;;6.70;3.30;;;;;;;8.37;100.00;92989.66;2115766;28;20024;-83
2023/12/29 04:23:41;;;;;;;5.32;3.17;;;;;;;8.41;100.00;92993.03;2114665;28;20412;-82
2023/12/29 04:24:51;;;;;;;5.05;3.20;;;;;;;8.29;100.00;92996.97;2098692;28;20086;-80
2023/12/29 04:25:52;;;;;;;3.58;3.05;;;;;;;8.13;100.00;92996.84;2107410;28;20024;-76
2023/12/29 04:26:53;;;;;;;10.07;3.45;;;;;;;8.17;100.00;92997.53;2111325;28;20157;-78
2023/12/29 04:27:54;;;;;;;4.47;3.28;;;;;;;8.03;100.00;92993.16;2113483;28;20479;-78
2023/12/29 04:28:55;;;;;;;3.85;2.80;;;;;;;8.13;100.00;92997.59;2107227;28;20515;-83
2023/12/29 04:29:56;;;;;;;4.30;2.67;;;;;;;8.22;100.00;92984.53;2110725;27;20024;-79
2023/12/29 04:30:56;;;;;;;3.97;3.25;;;;;;;8.22;100.00;93000.50;2114248;28;20032;-81
2023/12/29 04:31:57;;;;;;;3.78;2.50;;;;;;;8.31;100.00;92990.09;2108755;28;20109;-78
2023/12/29 04:32:58;;;;;;;4.43;2.72;;;;;;;8.16;100.00;92996.03;2111563;28;20031;-79
2023/12/29 04:33:59;;;;;;;3.38;2.80;;;;;;;8.29;100.00;92996.97;2113896;27;20023;-79
2023/12/29 04:35:00;;;;;;;4.63;2.70;;;;;;;8.14;100.00;92998.34;2115164;27;20015;-78
2023/12/29 04:36:02;;;;;;;3.47;2.85;;;;;;;8.24;100.00;93003.50;2114354;28;20027;-82
2023/12/29 04:37:03;;;;;;;3.45;2.47;;;;;;;8.30;100.00;92996.56;2115535;27;20049;-80
2023/12/29 04:38:06;;;;;;;3.53;2.60;;;;;;;8.29;100.00;93005.69;2115045;28;20023;-79
2023/12/29 04:39:09;;;;;;;3.35;2.60;;;;;;;8.39;100.00;92993.44;2113716;28;20027;-79
2023/12/29 04:40:10;;;;;;;4.10;2.83;;;;;;;8.62;100.00;92986.59;2098018;28;20123;-79
2023/12/29 04:41:14;;;;;;;5.40;2.85;;;;;;;8.65;100.00;92996.44;2106304;28;20020;-79
2023/12/29 04:42:16;;;;;;;3.55;2.78;;;;;;;8.74;100.00;92986.03;2089732;28;20021;-79
2023/12/29 04:43:17;;;;;;;3.42;2.65;;;;;;;8.58;100.00;92991.97;2104739;28;20042;-80
2023/12/29 04:44:18;;;;;;;5.95;2.80;;;;;;;8.69;100.00;92983.81;2114482;28;20089;-80
2023/12/29 04:45:19;;;;;;;4.40;2.20;;;;;;;8.56;100.00;92987.06;2122346;27;20034;-83
2023/12/29 04:46:20;;;;;;;4.20;2.67;;;;;;;8.58;100.00;92979.41;2114828;28;20031;-79
2023/12/29 04:47:21;;;;;;;6.70;2.80;;;;;;;8.65;100.00;92980.44;2104009;28;20023;-79
2023/12/29 04:48:22;;;;;;;3.22;2.70;;;;;;;8.55;100.00;92979.47;2095418;28;20032;-79
2023/12/29 04:49:23;;;;;;;3.97;2.70;;;;;;;8.61;100.00;92983.19;2048652;28;20127;-82
2023/12/29 04:50:24;;;;;;;4.75;2.88;;;;;;;8.55;100.00;92992.78;2028350;27;21101;-79
2023/12/29 04:51:25;;;;;;;4.07;3.17;;;;;;;8.51;100.00;92978.78;2015978;28;20027;-78
2023/12/29 04:52:26;;;;;;;3.80;2.80;;;;;;;8.39;100.00;92982.78;2037351;27;20287;-77